Terminal Aerodrome Forecast
Issued by NWS

Home | Current Version | Previous Version | Text Only | Print | Product List | Glossary On
Versions: 1 2 3 4 5 6 7 8 9 10 11 12 13 14 15 16 17
345
FTUS43 KEAX 051205 AAA
TAFSTJ
TAF AMD
KSTJ 051205Z 0512/0612 17005KT P6SM SKC
      TEMPO 0512/0514 4SM BR
     FM051700 18012KT P6SM FEW200
     FM060000 16004KT P6SM BKN150
     FM060800 33012KT P6SM BKN030=

USA.gov is the U.S. government's official web portal to all federal, state and local government web resources and services.